createdAt,value
2022-09-01T00:00:13.505Z,99.81
2022-09-01T00:02:43.138Z,99.35
2022-09-01T00:05:11.000Z,100.00
2022-09-01T00:07:38.978Z,100.00
2022-09-01T00:10:08.575Z,100.00
2022-09-01T00:12:37.276Z,100.00
2022-09-01T00:15:08.624Z,100.00
2022-09-01T00:17:36.279Z,100.00
2022-09-01T00:20:06.085Z,100.00
2022-09-01T00:22:35.250Z,100.00
2022-09-01T00:25:02.574Z,100.00
2022-09-01T00:27:30.824Z,100.00
2022-09-01T00:30:00.031Z,100.00
2022-09-01T00:32:28.386Z,100.00
2022-09-01T00:34:55.390Z,100.00
2022-09-01T00:37:23.557Z,100.00
2022-09-01T00:39:51.733Z,100.00
2022-09-01T00:42:18.863Z,100.00
2022-09-01T00:44:45.898Z,100.00
2022-09-01T00:47:14.570Z,100.00
2022-09-01T00:49:45.568Z,100.00
2022-09-01T00:52:21.260Z,100.00
2022-09-01T00:54:55.400Z,100.00
2022-09-01T00:57:22.783Z,100.00
2022-09-01T01:00:04.391Z,100.00
2022-09-01T01:02:31.398Z,100.00
2022-09-01T01:04:59.536Z,100.00
2022-09-01T01:07:28.459Z,100.00
2022-09-01T01:09:57.654Z,100.00
2022-09-01T01:12:28.051Z,100.00
2022-09-01T01:14:57.088Z,100.00
2022-09-01T01:17:24.984Z,100.00
2022-09-01T01:20:14.442Z,100.00
2022-09-01T01:23:10.528Z,100.00
2022-09-01T01:25:45.680Z,100.00
2022-09-01T01:28:37.135Z,100.00
2022-09-01T01:31:12.783Z,100.00
2022-09-01T01:33:44.582Z,100.00
2022-09-01T01:36:17.668Z,100.00
2022-09-01T01:38:49.707Z,100.00
2022-09-01T01:41:19.857Z,100.00
2022-09-01T01:43:48.318Z,100.00
2022-09-01T01:46:19.201Z,100.00
2022-09-01T01:48:52.320Z,100.00
2022-09-01T01:51:27.642Z,100.00
2022-09-01T01:53:56.059Z,100.00
2022-09-01T01:56:25.571Z,100.00
2022-09-01T01:58:56.168Z,100.00
2022-09-01T02:01:28.689Z,100.00
2022-09-01T02:03:57.108Z,100.00
2022-09-01T02:06:28.656Z,100.00
2022-09-01T02:08:58.108Z,100.00
2022-09-01T02:11:28.165Z,100.00
2022-09-01T02:13:57.345Z,100.00
2022-09-01T02:16:29.310Z,100.00
2022-09-01T02:18:56.737Z,100.00
2022-09-01T02:21:25.587Z,100.00
2022-09-01T02:24:01.197Z,100.00
2022-09-01T02:26:32.787Z,100.00
2022-09-01T02:29:09.239Z,100.00
2022-09-01T02:31:40.776Z,100.00
2022-09-01T02:34:13.947Z,100.00
2022-09-01T02:36:51.349Z,100.00
2022-09-01T02:39:32.673Z,100.00
2022-09-01T02:42:01.409Z,100.00
2022-09-01T02:44:36.329Z,100.00
2022-09-01T02:47:09.870Z,100.00
2022-09-01T02:49:38.974Z,100.00
2022-09-01T02:52:06.275Z,100.00
2022-09-01T02:54:36.391Z,100.00
2022-09-01T02:57:04.004Z,100.00
2022-09-01T02:59:31.788Z,100.00
2022-09-01T03:01:58.910Z,100.00
2022-09-01T03:04:27.430Z,100.00
2022-09-01T03:06:54.962Z,100.00
2022-09-01T03:09:22.946Z,100.00
2022-09-01T03:11:53.510Z,100.00
2022-09-01T03:14:22.228Z,100.00
2022-09-01T03:16:49.507Z,100.00
2022-09-01T03:19:16.719Z,100.00
2022-09-01T03:21:46.110Z,100.00
2022-09-01T03:24:17.890Z,100.00
2022-09-01T03:26:49.732Z,100.00
2022-09-01T03:29:18.076Z,100.00
2022-09-01T03:31:45.334Z,100.00
2022-09-01T03:34:12.872Z,100.00
2022-09-01T03:36:50.110Z,100.00
2022-09-01T03:39:19.876Z,100.00
2022-09-01T03:41:47.524Z,100.00
2022-09-01T03:44:16.450Z,100.00
2022-09-01T03:46:47.273Z,100.00
2022-09-01T03:49:15.581Z,100.00
2022-09-01T03:51:44.981Z,100.00
2022-09-01T03:54:12.631Z,100.00
2022-09-01T03:56:42.037Z,100.00
2022-09-01T03:59:17.080Z,100.00
2022-09-01T04:01:45.880Z,100.00
2022-09-01T04:04:14.840Z,100.00
2022-09-01T04:06:44.779Z,100.00
2022-09-01T04:09:11.893Z,100.00
2022-09-01T04:11:42.520Z,100.00
2022-09-01T04:14:13.149Z,100.00
2022-09-01T04:16:58.426Z,100.00
2022-09-01T04:19:27.527Z,100.00
2022-09-01T04:21:59.713Z,100.00
2022-09-01T04:24:30.259Z,100.00
2022-09-01T04:27:02.294Z,100.00
2022-09-01T04:29:31.979Z,100.00
2022-09-01T04:32:12.848Z,100.00
2022-09-01T04:34:40.397Z,100.00
2022-09-01T04:37:21.536Z,100.00
2022-09-01T04:39:57.423Z,100.00
2022-09-01T04:42:29.034Z,100.00
2022-09-01T04:44:57.706Z,100.00
2022-09-01T04:47:36.017Z,100.00
2022-09-01T04:50:12.974Z,100.00
2022-09-01T04:52:42.124Z,100.00
2022-09-01T04:55:17.563Z,100.00
2022-09-01T04:57:50.027Z,100.00
2022-09-01T05:00:23.212Z,100.00
2022-09-01T05:03:04.569Z,100.00
2022-09-01T05:05:45.476Z,100.00
2022-09-01T05:08:24.263Z,100.00
2022-09-01T05:10:55.758Z,100.00
2022-09-01T05:13:23.683Z,100.00
2022-09-01T05:16:04.597Z,100.00
2022-09-01T05:18:32.185Z,100.00
2022-09-01T05:20:59.165Z,100.00
2022-09-01T05:23:26.758Z,100.00
2022-09-01T05:25:54.913Z,100.00
2022-09-01T05:28:25.318Z,100.00
2022-09-01T05:30:54.353Z,100.00
2022-09-01T05:33:22.515Z,100.00
2022-09-01T05:36:02.011Z,100.00
2022-09-01T05:38:31.338Z,100.00
2022-09-01T05:41:04.539Z,100.00
2022-09-01T05:43:32.472Z,100.00
2022-09-01T05:46:06.939Z,100.00
2022-09-01T05:48:39.941Z,100.00
2022-09-01T05:51:27.458Z,100.00
2022-09-01T05:53:59.352Z,100.00
2022-09-01T05:56:28.863Z,100.00
2022-09-01T06:01:50.207Z,100.00
2022-09-01T06:04:17.727Z,100.00
2022-09-01T06:07:05.864Z,100.00
2022-09-01T06:09:40.509Z,100.00
2022-09-01T06:12:17.915Z,100.00
2022-09-01T06:14:48.334Z,100.00
2022-09-01T06:17:19.604Z,100.00
2022-09-01T06:19:46.852Z,100.00
2022-09-01T06:22:14.725Z,100.00
2022-09-01T06:24:43.803Z,100.00
2022-09-01T06:27:12.817Z,100.00
2022-09-01T06:29:40.872Z,100.00
2022-09-01T06:32:13.167Z,100.00
2022-09-01T06:34:44.416Z,100.00
2022-09-01T06:37:13.337Z,100.00
2022-09-01T06:39:40.384Z,100.00
2022-09-01T06:42:09.491Z,100.00
2022-09-01T06:44:40.663Z,100.00
2022-09-01T06:47:09.196Z,100.00
2022-09-01T06:49:38.832Z,100.00
2022-09-01T06:52:05.879Z,100.00
2022-09-01T06:54:34.310Z,100.00
2022-09-01T06:59:54.046Z,100.00
2022-09-01T07:02:22.374Z,100.00
2022-09-01T07:04:54.952Z,100.00
2022-09-01T07:10:25.371Z,100.00
2022-09-01T07:13:07.351Z,100.00
2022-09-01T07:18:31.593Z,100.00
2022-09-01T07:21:07.114Z,100.00
2022-09-01T07:24:07.598Z,100.00
2022-09-01T07:26:36.619Z,100.00
2022-09-01T07:29:12.347Z,100.00
2022-09-01T07:31:52.146Z,100.00
2022-09-01T07:34:39.035Z,100.00
2022-09-01T07:39:55.514Z,99.89
2022-09-01T07:45:28.919Z,99.27
2022-09-01T07:48:03.669Z,97.98
2022-09-01T07:51:07.513Z,96.89
2022-09-01T07:53:23.453Z,97.49
2022-09-01T07:55:53.285Z,98.10
2022-09-01T07:58:24.066Z,97.10
2022-09-01T08:00:51.453Z,98.52
2022-09-01T08:03:22.549Z,96.05
2022-09-01T08:05:53.867Z,96.87
2022-09-01T08:08:26.246Z,95.66
2022-09-01T08:11:04.385Z,94.85
2022-09-01T08:13:38.842Z,94.96
2022-09-01T08:16:16.981Z,94.04
2022-09-01T08:18:48.582Z,94.20
2022-09-01T08:21:18.243Z,91.59
2022-09-01T08:23:45.222Z,92.12
2022-09-01T08:26:15.972Z,92.54
2022-09-01T08:28:47.217Z,92.10
2022-09-01T08:31:23.861Z,92.72
2022-09-01T08:33:52.227Z,93.02
2022-09-01T08:36:23.991Z,92.17
2022-09-01T08:38:53.653Z,90.99
2022-09-01T08:41:46.900Z,87.48
2022-09-01T08:44:22.411Z,89.42
2022-09-01T08:46:56.307Z,89.88
2022-09-01T08:49:26.877Z,89.38
2022-09-01T08:52:41.394Z,89.19
2022-09-01T08:55:27.385Z,90.76
2022-09-01T08:57:59.819Z,89.71
2022-09-01T09:00:41.984Z,88.74
2022-09-01T09:03:41.079Z,88.26
2022-09-01T09:06:46.590Z,87.67
2022-09-01T09:09:13.588Z,84.13
2022-09-01T09:12:24.278Z,81.45
2022-09-01T09:15:17.278Z,79.55
2022-09-01T09:18:00.409Z,82.70
2022-09-01T09:20:29.393Z,82.15
2022-09-01T09:22:59.318Z,81.81
2022-09-01T09:25:29.701Z,79.87
2022-09-01T09:28:03.815Z,81.61
2022-09-01T09:30:32.465Z,80.63
2022-09-01T09:35:51.075Z,82.10
2022-09-01T09:38:28.827Z,84.25
2022-09-01T09:41:16.360Z,82.36
2022-09-01T09:44:01.203Z,81.30
2022-09-01T09:46:34.687Z,78.70
2022-09-01T09:49:34.566Z,79.62
2022-09-01T09:52:10.702Z,81.87
2022-09-01T09:55:00.448Z,81.85
2022-09-01T09:57:30.142Z,79.93
2022-09-01T10:00:09.374Z,78.99
2022-09-01T10:02:42.572Z,79.96
2022-09-01T10:05:24.780Z,81.34
2022-09-01T10:07:53.050Z,79.16
2022-09-01T10:10:37.707Z,79.66
2022-09-01T10:13:09.451Z,79.72
2022-09-01T10:15:38.250Z,75.54
2022-09-01T10:18:20.904Z,73.23
2022-09-01T10:21:01.753Z,73.88
2022-09-01T10:23:31.732Z,76.84
2022-09-01T10:26:21.998Z,76.16
2022-09-01T10:29:00.069Z,77.08
2022-09-01T10:31:29.562Z,76.86
2022-09-01T10:34:05.519Z,74.90
2022-09-01T10:36:37.393Z,74.63
2022-09-01T10:39:13.534Z,74.45
2022-09-01T10:41:59.468Z,74.90
2022-09-01T10:44:57.753Z,77.56
2022-09-01T10:47:33.730Z,74.58
2022-09-01T10:50:35.102Z,70.67
2022-09-01T10:53:06.269Z,72.84
2022-09-01T10:55:47.058Z,71.82
2022-09-01T11:01:26.126Z,69.06
2022-09-01T11:04:03.737Z,67.71
2022-09-01T11:07:16.588Z,69.17
2022-09-01T11:09:56.586Z,68.69
2022-09-01T11:12:45.318Z,66.80
2022-09-01T11:15:16.866Z,66.00
2022-09-01T11:17:52.879Z,66.90
2022-09-01T11:20:36.397Z,68.32
2022-09-01T11:23:30.382Z,68.07
2022-09-01T11:26:19.427Z,64.90
2022-09-01T11:28:47.435Z,65.39
2022-09-01T11:31:24.656Z,65.20
2022-09-01T11:33:56.939Z,65.87
2022-09-01T11:36:45.927Z,65.22
2022-09-01T11:39:26.715Z,62.15
2022-09-01T11:42:09.943Z,65.26
2022-09-01T11:44:55.487Z,66.63
2022-09-01T11:47:30.554Z,66.31
2022-09-01T11:50:05.344Z,66.19
2022-09-01T11:52:37.129Z,66.17
2022-09-01T11:55:07.003Z,64.59
2022-09-01T11:57:37.746Z,64.72
2022-09-01T12:00:12.814Z,63.18
2022-09-01T12:03:00.073Z,62.03
2022-09-01T12:05:35.552Z,60.51
2022-09-01T12:08:23.980Z,61.24
2022-09-01T12:10:51.417Z,60.71
2022-09-01T12:13:24.328Z,63.38
2022-09-01T12:16:18.923Z,62.79
2022-09-01T12:18:51.477Z,63.26
2022-09-01T12:21:42.841Z,62.22
2022-09-01T12:24:20.750Z,59.92
2022-09-01T12:26:51.727Z,61.11
2022-09-01T12:29:19.505Z,59.52
2022-09-01T12:31:50.489Z,59.44
2022-09-01T12:34:33.907Z,59.81
2022-09-01T12:37:24.421Z,60.12
2022-09-01T12:39:56.306Z,61.71
2022-09-01T12:42:40.860Z,62.19
2022-09-01T12:45:11.216Z,61.12
2022-09-01T12:47:48.025Z,60.68
2022-09-01T12:50:16.431Z,62.34
2022-09-01T12:53:05.077Z,60.24
2022-09-01T12:55:52.549Z,60.66
2022-09-01T12:58:29.500Z,62.31
2022-09-01T13:01:11.968Z,63.10
2022-09-01T13:04:28.181Z,62.76
2022-09-01T13:07:05.862Z,64.77
2022-09-01T13:09:33.843Z,63.24
2022-09-01T13:12:21.445Z,63.11
2022-09-01T13:14:49.233Z,63.43
2022-09-01T13:17:16.305Z,62.88
2022-09-01T13:19:43.354Z,61.04
2022-09-01T13:22:10.811Z,61.75
2022-09-01T13:24:37.914Z,61.00
2022-09-01T13:27:21.154Z,61.04
2022-09-01T13:29:49.394Z,60.42
2022-09-01T13:32:20.870Z,57.71
2022-09-01T13:34:51.789Z,57.87
2022-09-01T13:37:21.390Z,55.72
2022-09-01T13:39:49.165Z,57.95
2022-09-01T13:42:17.545Z,57.33
2022-09-01T13:44:46.315Z,58.21
2022-09-01T13:47:30.559Z,58.09
2022-09-01T13:50:09.278Z,56.38
2022-09-01T13:52:41.220Z,56.03
2022-09-01T13:55:12.074Z,55.95
2022-09-01T13:57:39.089Z,57.72
2022-09-01T14:00:10.999Z,55.62
2022-09-01T14:02:53.107Z,57.12
2022-09-01T14:05:32.852Z,56.53
2022-09-01T14:08:01.501Z,55.01
2022-09-01T14:10:31.930Z,56.27
2022-09-01T14:13:00.466Z,54.87
2022-09-01T14:15:27.894Z,57.30
2022-09-01T14:17:57.434Z,55.67
2022-09-01T14:20:31.379Z,55.56
2022-09-01T14:23:04.753Z,55.46
2022-09-01T14:25:33.456Z,56.37
2022-09-01T14:28:02.102Z,55.07
2022-09-01T14:30:31.812Z,53.52
2022-09-01T14:33:00.844Z,54.69
2022-09-01T14:35:29.265Z,54.29
2022-09-01T14:37:56.442Z,54.70
2022-09-01T14:40:24.287Z,53.66
2022-09-01T14:42:53.146Z,54.47
2022-09-01T14:45:28.632Z,54.38
2022-09-01T14:48:00.695Z,55.52
2022-09-01T14:50:32.365Z,54.96
2022-09-01T14:53:02.078Z,54.82
2022-09-01T14:55:30.738Z,54.50
2022-09-01T14:57:59.800Z,53.86
2022-09-01T15:00:28.353Z,54.59
2022-09-01T15:02:56.424Z,55.27
2022-09-01T15:05:24.819Z,53.96
2022-09-01T15:07:53.382Z,54.01
2022-09-01T15:10:25.950Z,53.99
2022-09-01T15:12:58.544Z,55.46
2022-09-01T15:15:27.937Z,55.15
2022-09-01T15:17:56.574Z,53.98
2022-09-01T15:20:42.865Z,54.75
2022-09-01T15:23:10.388Z,55.70
2022-09-01T15:25:37.673Z,54.98
2022-09-01T15:28:06.080Z,54.75
2022-09-01T15:30:33.803Z,53.92
2022-09-01T15:33:01.010Z,55.25
2022-09-01T15:35:30.776Z,53.80
2022-09-01T15:37:58.222Z,54.18
2022-09-01T15:40:26.979Z,54.77
2022-09-01T15:42:56.066Z,54.45
2022-09-01T15:45:25.272Z,55.82
2022-09-01T15:47:52.415Z,54.92
2022-09-01T15:50:23.504Z,54.81
2022-09-01T15:53:00.846Z,55.60
2022-09-01T15:55:30.845Z,55.27
2022-09-01T15:57:59.083Z,55.63
2022-09-01T16:00:27.765Z,56.12
2022-09-01T16:02:57.641Z,56.74
2022-09-01T16:05:25.957Z,56.43
2022-09-01T16:10:26.209Z,57.01
2022-09-01T16:12:53.177Z,57.44
2022-09-01T16:15:23.516Z,57.32
2022-09-01T16:18:15.491Z,57.24
2022-09-01T16:20:53.335Z,57.43
2022-09-01T16:23:24.384Z,57.38
2022-09-01T16:26:00.948Z,57.35
2022-09-01T16:28:37.044Z,57.43
2022-09-01T16:31:15.537Z,57.74
2022-09-01T16:33:52.075Z,57.55
2022-09-01T16:36:31.345Z,58.21
2022-09-01T16:39:39.238Z,58.21
2022-09-01T16:42:14.184Z,58.53
2022-09-01T16:45:00.142Z,58.25
2022-09-01T16:47:46.011Z,58.11
2022-09-01T16:50:37.976Z,58.47
2022-09-01T16:53:52.461Z,58.09
2022-09-01T16:56:30.582Z,58.33
2022-09-01T16:59:34.542Z,57.98
2022-09-01T17:02:44.011Z,58.83
2022-09-01T17:05:31.386Z,58.05
2022-09-01T17:08:30.020Z,58.61
2022-09-01T17:11:21.255Z,57.97
2022-09-01T17:13:53.337Z,58.74
2022-09-01T17:16:40.202Z,59.23
2022-09-01T17:19:19.384Z,59.36
2022-09-01T17:21:55.641Z,60.55
2022-09-01T17:24:47.991Z,59.63
2022-09-01T17:27:53.237Z,60.51
2022-09-01T17:30:21.144Z,60.32
2022-09-01T17:33:18.503Z,60.63
2022-09-01T17:36:42.346Z,60.57
2022-09-01T17:39:37.555Z,61.56
2022-09-01T17:42:22.023Z,61.08
2022-09-01T17:44:57.501Z,61.36
2022-09-01T17:47:37.138Z,62.42
2022-09-01T17:50:18.007Z,63.32
2022-09-01T17:53:23.180Z,63.49
2022-09-01T17:56:48.981Z,64.73
2022-09-01T17:59:36.542Z,65.84
2022-09-01T18:02:12.895Z,66.09
2022-09-01T18:04:52.827Z,66.25
2022-09-01T18:07:31.834Z,65.41
2022-09-01T18:10:02.615Z,65.58
2022-09-01T18:12:36.230Z,64.75
2022-09-01T18:15:17.191Z,64.89
2022-09-01T18:18:11.024Z,65.11
2022-09-01T18:20:45.389Z,65.88
2022-09-01T18:23:17.628Z,66.06
2022-09-01T18:26:18.843Z,67.22
2022-09-01T18:28:46.030Z,68.67
2022-09-01T18:31:28.598Z,68.79
2022-09-01T18:34:27.869Z,71.04
2022-09-01T18:36:59.716Z,70.96
2022-09-01T18:39:47.743Z,72.02
2022-09-01T18:42:33.998Z,72.41
2022-09-01T18:45:19.850Z,70.90
2022-09-01T18:51:13.992Z,70.66
2022-09-01T18:54:14.930Z,71.40
2022-09-01T18:56:56.003Z,71.35
2022-09-01T18:59:36.746Z,73.43
2022-09-01T19:02:20.677Z,73.19
2022-09-01T19:04:56.876Z,74.26
2022-09-01T19:07:36.789Z,74.80
2022-09-01T19:10:18.461Z,74.00
2022-09-01T19:13:05.824Z,72.68
2022-09-01T19:15:43.788Z,72.30
2022-09-01T19:19:03.430Z,71.70
2022-09-01T19:21:32.713Z,71.49
2022-09-01T19:24:11.632Z,71.35
2022-09-01T19:26:44.820Z,70.74
2022-09-01T19:29:27.567Z,70.82
2022-09-01T19:32:02.501Z,71.06
2022-09-01T19:34:55.624Z,71.31
2022-09-01T19:37:24.605Z,72.28
2022-09-01T19:39:55.437Z,72.57
2022-09-01T19:42:26.678Z,73.01
2022-09-01T19:44:59.498Z,73.55
2022-09-01T19:47:49.018Z,74.39
2022-09-01T19:50:28.445Z,73.45
2022-09-01T19:53:05.732Z,74.08
2022-09-01T19:55:48.267Z,74.54
2022-09-01T19:58:31.636Z,74.52
2022-09-01T20:01:02.584Z,74.37
2022-09-01T20:03:41.303Z,74.70
2022-09-01T20:09:05.935Z,75.57
2022-09-01T20:11:56.503Z,75.71
2022-09-01T20:14:45.886Z,76.76
2022-09-01T20:17:46.887Z,76.25
2022-09-01T20:20:23.587Z,76.63
2022-09-01T20:23:38.038Z,76.25
2022-09-01T20:26:16.588Z,75.84
2022-09-01T20:29:24.995Z,77.02
2022-09-01T20:31:57.161Z,76.88
2022-09-01T20:34:39.945Z,77.42
2022-09-01T20:37:21.381Z,77.23
2022-09-01T20:40:06.916Z,76.92
2022-09-01T20:43:14.819Z,77.08
2022-09-01T20:45:42.808Z,76.63
2022-09-01T20:48:23.581Z,77.25
2022-09-01T20:51:12.866Z,77.23
2022-09-01T20:54:05.412Z,78.16
2022-09-01T20:57:06.272Z,78.43
2022-09-01T20:59:52.556Z,78.79
2022-09-01T21:02:33.531Z,78.20
2022-09-01T21:05:46.050Z,79.20
2022-09-01T21:08:37.948Z,78.85
2022-09-01T21:11:24.123Z,79.18
2022-09-01T21:14:03.957Z,78.92
2022-09-01T21:17:04.081Z,78.98
2022-09-01T21:19:54.073Z,79.89
2022-09-01T21:22:22.328Z,80.23
2022-09-01T21:24:50.065Z,79.37
2022-09-01T21:27:27.074Z,79.55
2022-09-01T21:30:04.857Z,79.71
2022-09-01T21:32:33.804Z,80.83
2022-09-01T21:35:01.896Z,81.05
2022-09-01T21:37:29.514Z,81.74
2022-09-01T21:39:58.007Z,82.18
2022-09-01T21:42:34.330Z,81.76
2022-09-01T21:45:04.416Z,80.63
2022-09-01T21:47:32.681Z,81.10
2022-09-01T21:49:59.973Z,82.65
2022-09-01T21:52:27.465Z,83.87
2022-09-01T21:54:54.737Z,83.79
2022-09-01T21:57:23.120Z,84.01
2022-09-01T21:59:51.495Z,83.85
2022-09-01T22:02:20.494Z,82.87
2022-09-01T22:04:48.940Z,82.57
2022-09-01T22:07:18.654Z,83.48
2022-09-01T22:09:47.562Z,83.49
2022-09-01T22:12:15.008Z,83.25
2022-09-01T22:14:42.056Z,83.69
2022-09-01T22:17:09.240Z,83.86
2022-09-01T22:19:37.357Z,83.94
2022-09-01T22:22:04.923Z,84.24
2022-09-01T22:24:31.971Z,84.39
2022-09-01T22:27:00.022Z,84.72
2022-09-01T22:29:27.427Z,85.96
2022-09-01T22:31:54.457Z,86.59
2022-09-01T22:34:21.512Z,84.95
2022-09-01T22:36:49.797Z,85.58
2022-09-01T22:39:19.027Z,86.85
2022-09-01T22:41:48.863Z,86.61
2022-09-01T22:44:16.079Z,86.37
2022-09-01T22:46:44.190Z,86.22
2022-09-01T22:49:12.199Z,87.02
2022-09-01T22:51:42.115Z,87.55
2022-09-01T22:54:11.808Z,88.00
2022-09-01T22:56:41.233Z,87.66
2022-09-01T22:59:13.645Z,87.23
2022-09-01T23:01:45.844Z,87.29
2022-09-01T23:04:15.571Z,86.99
2022-09-01T23:06:52.233Z,87.90
2022-09-01T23:09:20.759Z,87.74
2022-09-01T23:11:48.415Z,88.24
2022-09-01T23:14:15.549Z,86.96
2022-09-01T23:16:42.751Z,87.22
2022-09-01T23:19:09.819Z,88.16
2022-09-01T23:21:38.342Z,89.00
2022-09-01T23:24:07.049Z,89.03
2022-09-01T23:26:35.178Z,88.93
2022-09-01T23:29:03.703Z,88.91
2022-09-01T23:31:35.820Z,89.37
2022-09-01T23:34:06.055Z,89.41
2022-09-01T23:36:33.982Z,90.14
2022-09-01T23:39:03.676Z,90.51
2022-09-01T23:41:33.910Z,89.91
2022-09-01T23:44:04.502Z,90.37
2022-09-01T23:46:37.100Z,90.41
2022-09-01T23:49:05.255Z,89.18
2022-09-01T23:51:32.526Z,89.04
2022-09-01T23:54:00.094Z,88.65
2022-09-01T23:56:29.844Z,89.47
2022-09-01T23:58:59.288Z,88.64
